Detall de PIREP

Printer-friendly versionPDF version

[2014/11/02 10:22:00]
Flight IATA:CT2109
Pilot Number:037
Company ICAO:CAT
Aircraft Type:B752/E
PAX:75
Aircraft Registration:PAX
Departing Airport: LEMG
Destination Airport: LEVC
Alternate Airport:LEPA
Online: VATSIM
Route:VIBAS B28 ASTRO
Flight Level:F240
No Slew and time accel
No pause
Crash detect
Detect pilot in Cockpit between each 30 and 45 minutes
10:22 Zero fuel Weight: 156740 Lbs, Fuel Weight: 19521 Lbs
10:22 VATSIM:LEMG 021000Z 06001KT 9999 FEW025 SCT035 21/17 Q1021 NOSIG
10:22 VATSIM:LEVC 021000Z VRB02KT 9999 BKN033 21/14 Q1021 NOSIG
10:22 Parking Brakes off
10:31 Take-off
10:31 Take off Weight: 175394 Lbs
10:31 Wind: 064º @ 001 Knots Heading: 131º
10:31 POS N36º 40´ 40´´ W004º 30´ 12´´
10:31 Gear Up: 173 Knots
10:31 Flaps:2 at 173 Knots
10:31 Flaps:1 at 191 Knots
10:34 Flaps:0 at 218 Knots
10:41 TOC
10:41 Fuel Weight: 15611 Lb
10:46 Wind:079º@019 Knots Heading: 047º Ground Speed: 451 Knots Altitude 24255 ft
10:52 TOD
10:52 Fuel Weight: 13845 Lb
11:01 Wind:169º@030 Knots Heading: 056º Ground Speed: 356 Knots Altitude 14032 ft
11:16 Wind:158º@010 Knots Heading: 031º Ground Speed: 232 Knots Altitude 5009 ft
11:18 Flaps:1 at 183 Knots
11:20 Flaps:2 at 164 Knots
11:21 Gear Down: 166 Knots
11:21 Flaps:3 at 166 Knots
11:21 Flaps:4 at 157 Knots
11:22 Flaps:5 at 162 Knots
11:22 Flaps:6 at 148 Knots
11:23 TouchDown:Rate -274 ft/min Speed: 123 Knots
11:23 VATSIM:LEVC 021100Z VRB02KT 9999 BKN033 21/14 Q1021 NOSIG
11:23 Land
11:23 Wind:188º@005 Knots
11:23 Heading: 116º
11:23 Flight Duration: 00:52
11:23 Landing Weight: 168167 Lbs
11:23 POS N39º 29´ 22´´ W000º 28´ 57´´
11:24 Parking brakes on
11:24 Block to Block Duration: 01:02
11:24 Final Fuel: 11406 Lbls
11:24 Spent Fuel: 8115 Lbls
11:24 Flight Length:293 NM
11:24 TOD Land Length: 153 NM
[2014/11/02 10:22:00]
Flight IATA:CT2109
Pilot Number:037
Company ICAO:CAT
Aircraft Type:B752/E
PAX:75
Aircraft Registration:PAX
Departing Airport: LEMG
Destination Airport: LEVC
Alternate Airport:LEPA
Online: VATSIM
Route:VIBAS B28 ASTRO
Flight Level:F240
No Slew and time accel
No pause
Crash detect
Detect pilot in Cockpit between each 30 and 45 minutes
[2014/11/02 10:22:00]
Flight IATA:CT2109
Pilot Number:037
Company ICAO:CAT
Aircraft Type:B752/E
PAX:75
Aircraft Registration:PAX
Departing Airport: LEMG
Destination Airport: LEVC
Alternate Airport:LEPA
Online: VATSIM
Route:VIBAS B28 ASTRO
Flight Level:F240
No Slew and time accel
No pause
Crash detect
Detect pilot in Cockpit between each 30 and 45 minutes
10:22 Zero fuel Weight: 156740 Lbs, Fuel Weight: 19521 Lbs
10:22 VATSIM:LEMG 021000Z 06001KT 9999 FEW025 SCT035 21/17 Q1021 NOSIG
10:22 VATSIM:LEVC 021000Z VRB02KT 9999 BKN033 21/14 Q1021 NOSIG
10:22 Parking Brakes off
10:31 Take-off
10:31 Take off Weight: 175394 Lbs
10:31 Wind: 064º @ 001 Knots Heading: 131º
10:31 POS N36º 40´ 40´´ W004º 30´ 12´´
10:31 Gear Up: 173 Knots
10:31 Flaps:2 at 173 Knots
10:31 Flaps:1 at 191 Knots
10:34 Flaps:0 at 218 Knots
10:41 TOC
10:41 Fuel Weight: 15611 Lb
10:46 Wind:079º@019 Knots Heading: 047º Ground Speed: 451 Knots Altitude 24255 ft
10:52 TOD
10:52 Fuel Weight: 13845 Lb
11:01 Wind:169º@030 Knots Heading: 056º Ground Speed: 356 Knots Altitude 14032 ft
11:16 Wind:158º@010 Knots Heading: 031º Ground Speed: 232 Knots Altitude 5009 ft
11:18 Flaps:1 at 183 Knots
11:20 Flaps:2 at 164 Knots
11:21 Gear Down: 166 Knots
11:21 Flaps:3 at 166 Knots
11:21 Flaps:4 at 157 Knots
11:22 Flaps:5 at 162 Knots
11:22 Flaps:6 at 148 Knots
11:23 TouchDown:Rate -274 ft/min Speed: 123 Knots
11:23 VATSIM:LEVC 021100Z VRB02KT 9999 BKN033 21/14 Q1021 NOSIG
11:23 Land
11:23 Wind:188º@005 Knots
11:23 Heading: 116º
11:23 Flight Duration: 00:52
11:23 Landing Weight: 168167 Lbs
11:23 POS N39º 29´ 22´´ W000º 28´ 57´´
11:24 Parking brakes on
11:24 Block to Block Duration: 01:02
11:24 Final Fuel: 11406 Lbls
11:24 Spent Fuel: 8115 Lbls
11:24 Flight Length: 293 NM
11:24 TOD Land Length: 153 NM

Exportar CSV

Powered by Drupal - Modified by Danger4k